Decoded Metar for KRCM ( in _UNIDENTIFIED) (IATA:N/A) | Meteo·Mobile Aviation Weather
aviador You're here:

KRCM Decoded Metar

in _UNIDENTIFIED
Report Time2019-01-17 00:35:00
UTC Time2019-01-17 00:54:11
Flight Rules lifr LIFR
Wind060° at 06 kt
W.Decomp.*RWY 36: 3.6 kt HW 4.8 kt RCW
RWY 13: 1.3 kt HW 5.8 kt LCW
W.Rank060° ranks 26
Current wind is below 060° avg. (6.0)
Visibility4023 m
Phenomena:Mist
Clouds:Overcast 002 Hf
Ceiling200 ft
Temp00°C (ISA -13)
Dew Point00°C (100% RH)
AAT-4.1°C
QNH1020 hPa
Density Alt-988 ft
Elevation801 ft
Report Wrong Elevation
Raw Report
KRCM 170035Z AUTO 06006KT 2 1/2SM BR OVC002 00/00 A3012 RMK
AO2=

Extra information for KRCM:More info

Metar Taf Metar & Taf Last 4 Metars F.Rules Stats Wind Profile Meteogram Temp Stats Metar ALERT Operation Metar Decoded Social comments